Terminal Aerodrome Forecast
Issued by NWS

Home | Current Version | Previous Version | Graphics & Text | Print | Product List | Glossary On
Versions: 1 2 3 4 5 6 7 8 9 10 11 12 13 14 15 16
388
FTUS43 KFGF 231120
TAFBJI
TAF
KBJI 231120Z 2312/2412 36008KT P6SM VCSH OVC007
      TEMPO 2312/2315 5SM -RA OVC005
     FM231600 01010KT P6SM OVC010
     FM231900 02010G17KT P6SM OVC020
     FM232200 02009KT P6SM BKN050
     FM240300 02004KT P6SM SCT070=

USA.gov is the U.S. government's official web portal to all federal, state and local government web resources and services.